Time;durP1;ratioP1;P1;durP2;ratioP2;P2;SDS_P1;SDS_P2;PMS_P1;PMS_P2;Temp;Humidity;BMP_temperature;BMP_pressure;BME280_temperature;BME280_humidity;BME280_pressure;Samples;Min_cycle;Max_cycle;Signal;HPM_P1;HPM_P2
2023/04/05 00:01:52;;;;;;;5.93;4.67;;;;;;;1.54;nan;98671.41;5073150;28;20211;-74
2023/04/05 00:04:19;;;;;;;7.40;4.80;;;;;;;1.52;nan;98668.09;5073232;28;20205;-74
2023/04/05 00:06:49;;;;;;;6.50;4.73;;;;;;;1.53;nan;98659.28;5073136;28;20303;-73
2023/04/05 00:09:17;;;;;;;7.27;4.80;;;;;;;1.51;nan;98656.81;5073082;28;20247;-73
2023/04/05 00:11:44;;;;;;;6.10;4.70;;;;;;;1.41;nan;98660.44;5072794;28;20212;-74
2023/04/05 00:14:10;;;;;;;7.40;4.50;;;;;;;1.53;nan;98660.09;5072977;28;20246;-73
2023/04/05 00:16:37;;;;;;;8.87;4.60;;;;;;;1.48;nan;98656.28;5073046;28;20212;-74
2023/04/05 00:19:04;;;;;;;5.60;4.80;;;;;;;1.37;nan;98653.84;5072734;28;20211;-73
2023/04/05 00:21:32;;;;;;;5.87;4.53;;;;;;;1.46;nan;98652.97;5072738;28;20251;-74
2023/04/05 00:23:59;;;;;;;5.80;4.87;;;;;;;1.55;nan;98649.47;5072956;28;20295;-74
2023/04/05 00:26:26;;;;;;;6.23;4.53;;;;;;;1.56;nan;98641.47;5072929;28;20205;-74
2023/04/05 00:28:52;;;;;;;5.80;4.90;;;;;;;1.53;nan;98633.88;5072566;28;20583;-74
2023/04/05 00:31:19;;;;;;;7.67;4.50;;;;;;;1.56;nan;98628.38;5072969;28;20312;-74
2023/04/05 00:33:46;;;;;;;5.53;4.77;;;;;;;1.54;nan;98632.91;5072551;28;20239;-74
2023/04/05 00:36:15;;;;;;;6.30;4.63;;;;;;;1.55;nan;98625.88;5072907;28;20547;-74
2023/04/05 00:38:42;;;;;;;6.07;4.63;;;;;;;1.57;nan;98624.75;5072542;28;20208;-74
2023/04/05 00:41:09;;;;;;;6.20;4.37;;;;;;;1.52;nan;98631.41;5072807;28;20219;-74
2023/04/05 00:43:35;;;;;;;5.77;4.50;;;;;;;1.55;nan;98620.66;5073809;28;20234;-73
2023/04/05 00:46:02;;;;;;;7.50;4.43;;;;;;;1.55;nan;98620.66;5076402;28;20201;-73
2023/04/05 00:48:29;;;;;;;6.87;5.43;;;;;;;1.59;nan;98616.75;5075978;28;20687;-74
2023/04/05 00:50:57;;;;;;;5.80;4.70;;;;;;;1.55;nan;98620.66;5076292;28;20204;-73
2023/04/05 00:53:25;;;;;;;5.57;4.90;;;;;;;1.46;nan;98613.69;5076236;28;20231;-74
2023/04/05 00:55:52;;;;;;;6.97;4.20;;;;;;;1.44;nan;98618.25;5076189;28;20617;-74
2023/04/05 00:58:21;;;;;;;6.53;4.33;;;;;;;1.48;nan;98609.13;5076182;28;20327;-74
2023/04/05 01:01:05;;;;;;;4.97;3.87;;;;;;;1.37;nan;98611.94;5076083;28;20205;-74
2023/04/05 01:03:34;;;;;;;8.83;3.90;;;;;;;1.39;nan;98604.78;5076106;28;20278;-74
2023/04/05 01:06:22;;;;;;;4.47;4.07;;;;;;;1.31;nan;98608.13;5075694;28;20220;-74
2023/04/05 01:09:02;;;;;;;5.83;3.70;;;;;;;1.52;nan;98605.22;5076003;28;20219;-74
2023/04/05 01:11:32;;;;;;;5.67;4.03;;;;;;;1.54;nan;98600.66;5075979;28;20195;-74
2023/04/05 01:14:00;;;;;;;4.23;3.80;;;;;;;1.55;nan;98591.81;5075848;28;20221;-74
2023/04/05 01:16:27;;;;;;;5.27;3.97;;;;;;;1.49;nan;98597.66;5075529;28;20205;-74
2023/04/05 01:18:55;;;;;;;5.03;3.70;;;;;;;1.59;nan;98596.63;5075785;28;20222;-73
2023/04/05 01:21:41;;;;;;;7.13;3.57;;;;;;;1.60;nan;98589.56;5076337;28;20205;-74
2023/04/05 01:24:19;;;;;;;4.23;3.73;;;;;;;1.62;nan;98588.44;5075598;28;20310;-74
2023/04/05 01:27:06;;;;;;;3.70;3.37;;;;;;;1.64;nan;98583.06;5075702;28;20208;-74
2023/04/05 01:29:39;;;;;;;5.97;3.63;;;;;;;1.66;nan;98575.91;5075324;28;20216;-73
2023/04/05 01:32:26;;;;;;;5.10;4.13;;;;;;;1.60;nan;98576.47;5057421;28;20192;-74
2023/04/05 01:34:59;;;;;;;5.10;3.93;;;;;;;1.64;nan;98569.97;5058625;28;20193;-74
2023/04/05 01:37:27;;;;;;;8.57;4.27;;;;;;;1.60;nan;98576.47;5057683;28;20207;-74
2023/04/05 01:39:54;;;;;;;4.93;4.33;;;;;;;1.60;nan;98571.22;5075425;28;20254;-74
2023/04/05 01:42:25;;;;;;;4.20;3.80;;;;;;;1.52;nan;98572.00;5074998;28;20707;-74
2023/04/05 01:44:53;;;;;;;5.93;4.50;;;;;;;1.40;nan;98569.75;5075325;28;20215;-74
2023/04/05 01:47:20;;;;;;;5.80;3.77;;;;;;;1.46;nan;98574.38;5075339;28;20208;-73
2023/04/05 01:49:47;;;;;;;5.87;4.20;;;;;;;1.40;nan;98570.56;5074825;28;20220;-73
2023/04/05 01:52:13;;;;;;;6.50;4.10;;;;;;;1.38;nan;98567.28;5075059;28;20225;-74
2023/04/05 01:54:39;;;;;;;6.97;4.50;;;;;;;1.40;nan;98567.94;5074742;28;20215;-74
2023/04/05 01:57:06;;;;;;;5.30;4.00;;;;;;;1.40;nan;98565.31;5075028;28;20201;-74
2023/04/05 01:59:32;;;;;;;5.77;3.93;;;;;;;1.30;nan;98569.00;5074664;28;20205;-74
2023/04/05 02:01:58;;;;;;;7.03;3.70;;;;;;;1.30;nan;98561.16;5074279;28;20691;-74
2023/04/05 02:04:25;;;;;;;5.10;4.20;;;;;;;1.27;nan;98561.44;5074367;28;20689;-74
2023/04/05 02:06:51;;;;;;;8.53;4.27;;;;;;;1.23;nan;98554.84;5056728;28;20212;-74
2023/04/05 02:09:18;;;;;;;6.53;4.30;;;;;;;1.10;nan;98557.81;5074504;28;20713;-74
2023/04/05 02:11:44;;;;;;;8.37;4.80;;;;;;;1.15;nan;98555.59;5074807;28;20208;-74
2023/04/05 02:14:11;;;;;;;5.07;4.37;;;;;;;1.01;nan;98550.03;5074309;28;20566;-74
2023/04/05 02:16:37;;;;;;;5.60;4.23;;;;;;;1.07;nan;98557.31;5074383;28;20667;-74
2023/04/05 02:19:04;;;;;;;5.67;4.40;;;;;;;1.06;nan;98558.25;5074625;28;20566;-74
2023/04/05 02:21:31;;;;;;;5.33;4.30;;;;;;;1.06;nan;98558.25;5074529;28;20204;-74
2023/04/05 02:23:57;;;;;;;7.43;4.57;;;;;;;0.84;nan;98551.63;5074499;28;20221;-74
2023/04/05 02:26:24;;;;;;;6.80;4.50;;;;;;;0.82;nan;98550.97;5074425;28;20205;-74
2023/04/05 02:28:50;;;;;;;7.77;4.27;;;;;;;0.67;nan;98549.78;5074338;28;20228;-74
2023/04/05 02:31:16;;;;;;;6.73;4.77;;;;;;;0.73;nan;98545.78;5074422;28;20216;-74
2023/04/05 02:33:43;;;;;;;5.63;4.00;;;;;;;0.77;nan;98542.72;5073947;28;20605;-73
2023/04/05 02:36:12;;;;;;;5.23;4.30;;;;;;;0.83;nan;98536.06;5074342;28;20208;-73
2023/04/05 02:38:39;;;;;;;4.73;3.87;;;;;;;0.75;nan;98551.69;5074309;28;20204;-73
2023/04/05 02:41:10;;;;;;;4.80;4.30;;;;;;;0.77;nan;98547.94;5074171;28;20200;-74
2023/04/05 02:43:37;;;;;;;5.73;4.13;;;;;;;0.64;nan;98546.66;5074175;28;20220;-73
2023/04/05 02:46:03;;;;;;;7.07;4.50;;;;;;;0.60;nan;98551.34;5074040;28;20200;-74
2023/04/05 02:48:29;;;;;;;5.57;4.47;;;;;;;0.67;nan;98541.13;5074605;28;20204;-74
2023/04/05 02:50:56;;;;;;;6.53;4.43;;;;;;;0.66;nan;98545.53;5073673;28;20703;-74
2023/04/05 02:53:22;;;;;;;6.20;4.30;;;;;;;0.69;nan;98544.41;5074475;28;20229;-74
2023/04/05 02:55:56;;;;;;;4.47;3.90;;;;;;;0.65;nan;98543.06;5073657;28;20751;-74
2023/04/05 02:58:23;;;;;;;5.27;4.43;;;;;;;0.60;nan;98547.91;5073618;28;20685;-74
2023/04/05 03:00:51;;;;;;;5.13;4.10;;;;;;;0.65;nan;98543.06;5073862;28;20212;-74
2023/04/05 03:03:19;;;;;;;5.17;3.97;;;;;;;0.67;nan;98539.31;5073712;28;20224;-74
2023/04/05 03:05:47;;;;;;;5.60;4.40;;;;;;;0.56;nan;98552.63;5072751;28;20633;-74
2023/04/05 03:08:18;;;;;;;8.03;4.50;;;;;;;0.55;nan;98537.06;5073618;28;20247;-74
2023/04/05 03:10:47;;;;;;;8.00;4.10;;;;;;;0.57;nan;98537.72;5074045;28;20307;-74
2023/04/05 03:13:14;;;;;;;5.23;4.33;;;;;;;0.58;nan;98540.19;5073448;28;20239;-74
2023/04/05 03:15:41;;;;;;;5.93;4.40;;;;;;;0.44;nan;98532.81;5073420;28;20299;-74
2023/04/05 03:18:08;;;;;;;5.73;4.07;;;;;;;0.45;nan;98534.47;5073214;28;20686;-74
2023/04/05 03:20:39;;;;;;;7.07;4.17;;;;;;;0.42;nan;98537.41;5073505;28;20201;-74
2023/04/05 03:23:07;;;;;;;9.23;5.20;;;;;;;0.45;nan;98528.44;5073436;28;20225;-74
2023/04/05 03:25:37;;;;;;;5.73;4.43;;;;;;;0.54;nan;98527.56;5073257;28;20214;-74
2023/04/05 03:28:07;;;;;;;6.10;4.63;;;;;;;0.51;nan;98527.84;5073463;28;20204;-74
2023/04/05 03:30:34;;;;;;;8.00;4.60;;;;;;;0.45;nan;98523.19;5073235;28;20310;-74
2023/04/05 03:33:01;;;;;;;7.33;4.40;;;;;;;0.46;nan;98530.91;5072737;28;20236;-74
2023/04/05 03:35:28;;;;;;;5.47;4.67;;;;;;;0.53;nan;98526.72;5073163;28;20211;-74
2023/04/05 03:37:55;;;;;;;7.80;4.47;;;;;;;0.63;nan;98529.31;5072917;28;20254;-74
2023/04/05 03:40:23;;;;;;;7.47;5.40;;;;;;;0.55;nan;98523.97;5073304;28;20200;-74
2023/04/05 03:42:50;;;;;;;6.20;4.47;;;;;;;0.57;nan;98528.09;5073098;28;20227;-74
2023/04/05 03:45:17;;;;;;;7.60;4.70;;;;;;;0.55;nan;98532.66;5073197;28;20207;-74
2023/04/05 03:47:44;;;;;;;6.27;4.37;;;;;;;0.42;nan;98534.78;5073067;28;20246;-74
2023/04/05 03:50:10;;;;;;;6.87;4.80;;;;;;;0.40;nan;98528.84;5072745;28;20236;-74
2023/04/05 03:52:36;;;;;;;5.07;4.57;;;;;;;0.42;nan;98523.47;5073118;28;20225;-74
2023/04/05 03:55:03;;;;;;;7.67;4.60;;;;;;;0.44;nan;98526.78;5073146;28;20208;-74
2023/04/05 03:57:30;;;;;;;5.80;4.57;;;;;;;0.32;nan;98524.34;5073159;28;20200;-74
2023/04/05 03:59:56;;;;;;;5.03;4.20;;;;;;;0.47;nan;98524.69;5072825;28;20569;-74
2023/04/05 04:02:23;;;;;;;5.10;4.27;;;;;;;0.50;nan;98524.41;5072558;28;20232;-74
2023/04/05 04:04:50;;;;;;;5.37;4.20;;;;;;;0.50;nan;98526.22;5072663;28;20204;-74
2023/04/05 04:07:16;;;;;;;5.43;4.30;;;;;;;0.45;nan;98528.44;5072149;28;20209;-73
2023/04/05 04:09:43;;;;;;;6.17;4.53;;;;;;;0.40;nan;98526.22;5072809;28;20226;-74
2023/04/05 04:12:09;;;;;;;4.87;4.20;;;;;;;0.47;nan;98526.47;5072880;28;20201;-74
2023/04/05 04:14:35;;;;;;;4.77;4.20;;;;;;;0.40;nan;98525.44;5072724;28;20249;-74
2023/04/05 04:17:02;;;;;;;5.60;5.00;;;;;;;0.47;nan;98528.13;5073011;28;20207;-74
2023/04/05 04:19:28;;;;;;;7.47;5.07;;;;;;;0.38;nan;98525.56;5077153;28;20214;-74
2023/04/05 04:21:54;;;;;;;7.60;5.20;;;;;;;0.41;nan;98527.06;5076018;28;20685;-74
2023/04/05 04:24:21;;;;;;;5.77;5.17;;;;;;;0.42;nan;98528.72;5076271;28;20449;-75
2023/04/05 04:26:48;;;;;;;6.93;4.73;;;;;;;0.42;nan;98523.47;5076438;28;20200;-74
2023/04/05 04:29:16;;;;;;;5.47;4.33;;;;;;;0.32;nan;98529.56;5076495;28;20209;-74
2023/04/05 04:31:44;;;;;;;4.70;4.30;;;;;;;0.32;nan;98527.94;5076887;28;20204;-74
2023/04/05 04:34:13;;;;;;;6.20;4.90;;;;;;;0.26;nan;98518.06;5076082;28;20278;-74
2023/04/05 04:36:41;;;;;;;6.40;5.17;;;;;;;0.31;nan;98534.13;5076314;28;20204;-74
2023/04/05 04:39:09;;;;;;;6.80;4.63;;;;;;;0.33;nan;98531.22;5075916;28;20201;-74
2023/04/05 04:41:37;;;;;;;6.70;5.03;;;;;;;0.41;nan;98527.06;5075589;28;20211;-74
2023/04/05 04:44:04;;;;;;;7.87;5.50;;;;;;;0.35;nan;98528.47;5075461;28;20228;-74
2023/04/05 04:46:41;;;;;;;7.97;5.40;;;;;;;0.27;nan;98530.16;5075433;28;20651;-74
2023/04/05 04:49:08;;;;;;;9.93;6.50;;;;;;;0.22;nan;98525.34;5075594;28;20193;-74
2023/04/05 04:51:37;;;;;;;11.67;5.83;;;;;;;0.24;nan;98526.84;5076007;28;20215;-74
2023/04/05 04:54:03;;;;;;;9.27;6.23;;;;;;;0.23;nan;98530.44;5075800;28;20583;-74
2023/04/05 04:56:30;;;;;;;7.40;5.93;;;;;;;0.13;nan;98522.78;5075683;28;20215;-74
2023/04/05 04:58:57;;;;;;;10.07;6.57;;;;;;;0.11;nan;98525.53;5075512;28;20205;-74
2023/04/05 05:01:23;;;;;;;9.73;6.53;;;;;;;0.09;nan;98530.06;5075279;28;20205;-74
2023/04/05 05:03:51;;;;;;;13.33;6.43;;;;;;;0.06;nan;98536.41;5075387;28;20231;-74
2023/04/05 05:06:20;;;;;;;9.13;7.00;;;;;;;0.12;nan;98531.59;5075360;28;20208;-74
2023/04/05 05:08:47;;;;;;;12.07;6.53;;;;;;;0.04;nan;98540.94;5075527;28;20204;-74
2023/04/05 05:11:14;;;;;;;10.10;6.70;;;;;;;0.13;nan;98540.09;5075404;28;20235;-74
2023/04/05 05:13:40;;;;;;;10.50;6.37;;;;;;;0.12;nan;98544.66;5075280;28;20311;-74
2023/04/05 05:16:08;;;;;;;8.90;5.90;;;;;;;0.17;nan;98545.06;5075234;28;20288;-74
2023/04/05 05:18:35;;;;;;;7.40;5.77;;;;;;;0.28;nan;98542.25;5075313;28;20204;-74
2023/04/05 05:21:01;;;;;;;9.00;5.70;;;;;;;0.32;nan;98541.84;5075346;28;20212;-73
2023/04/05 05:23:28;;;;;;;8.50;5.73;;;;;;;0.40;nan;98544.53;5074986;28;20246;-74
2023/04/05 05:25:59;;;;;;;7.30;5.37;;;;;;;0.52;nan;98545.19;5074615;28;20671;-73
2023/04/05 05:28:26;;;;;;;7.70;5.40;;;;;;;0.53;nan;98545.03;5075075;28;20205;-74
2023/04/05 05:30:53;;;;;;;9.40;5.23;;;;;;;0.58;nan;98539.41;5074230;28;20231;-74
2023/04/05 05:33:19;;;;;;;7.50;5.30;;;;;;;0.66;nan;98536.84;5074437;28;20235;-74
2023/04/05 05:35:50;;;;;;;7.97;5.13;;;;;;;0.69;nan;98542.63;5074663;28;20208;-74
2023/04/05 05:38:16;;;;;;;8.67;6.20;;;;;;;0.72;nan;98538.91;5074959;28;20205;-74
2023/04/05 05:40:43;;;;;;;6.40;5.23;;;;;;;0.72;nan;98536.28;5074886;28;20211;-74
2023/04/05 05:43:10;;;;;;;8.47;5.77;;;;;;;0.75;nan;98533.34;5074691;28;20582;-74
2023/04/05 05:45:37;;;;;;;9.77;5.03;;;;;;;0.84;nan;98528.09;5074839;28;20201;-74
2023/04/05 05:48:03;;;;;;;7.03;5.07;;;;;;;0.90;nan;98526.69;5074498;28;20204;-73
2023/04/05 05:50:31;;;;;;;11.20;5.27;;;;;;;0.96;nan;98533.94;5074738;28;20582;-74
2023/04/05 05:53:00;;;;;;;7.90;5.30;;;;;;;1.04;nan;98537.44;5074243;28;20278;-74
2023/04/05 05:55:27;;;;;;;8.17;5.70;;;;;;;1.07;nan;98534.53;5074629;28;20213;-74
2023/04/05 05:57:54;;;;;;;7.30;5.37;;;;;;;1.39;nan;98540.09;5074475;28;20200;-74
2023/04/05 06:00:21;;;;;;;5.90;4.60;;;;;;;1.50;nan;98526.78;5074624;28;20569;-74
2023/04/05 06:02:48;;;;;;;9.67;4.90;;;;;;;1.30;nan;98532.34;5074500;28;20354;-74
2023/04/05 06:05:15;;;;;;;7.73;5.40;;;;;;;1.25;nan;98535.38;5074438;28;20231;-73
2023/04/05 06:07:41;;;;;;;5.70;5.00;;;;;;;1.27;nan;98543.09;5074415;28;20226;-74
2023/04/05 06:10:08;;;;;;;7.27;5.40;;;;;;;1.31;nan;98544.44;5073645;28;20224;-74
2023/04/05 06:12:35;;;;;;;12.40;5.40;;;;;;;1.38;nan;98551.56;5073850;28;20231;-73
2023/04/05 06:15:01;;;;;;;8.53;5.50;;;;;;;1.24;nan;98553.88;5073537;28;20208;-74
2023/04/05 06:17:28;;;;;;;7.37;5.13;;;;;;;1.17;nan;98547.59;5073691;28;20210;-74
2023/04/05 06:19:54;;;;;;;10.07;5.20;;;;;;;1.35;nan;98546.59;5073459;28;20611;-72
2023/04/05 06:22:22;;;;;;;10.53;6.53;;;;;;;1.49;nan;98546.09;5055789;28;20235;-70
2023/04/05 06:24:48;;;;;;;8.77;5.63;;;;;;;1.84;nan;98547.84;5074122;28;20232;-73
2023/04/05 06:27:15;;;;;;;9.00;5.80;;;;;;;1.70;nan;98554.47;5073869;28;20204;-73
2023/04/05 06:29:41;;;;;;;6.97;5.70;;;;;;;1.65;nan;98542.78;5073777;28;20206;-74
2023/04/05 06:32:07;;;;;;;8.37;5.67;;;;;;;1.75;nan;98554.81;5073576;28;20211;-73
2023/04/05 06:34:34;;;;;;;6.27;5.50;;;;;;;1.88;nan;98554.44;5073151;28;20631;-73
2023/04/05 06:37:01;;;;;;;6.50;5.70;;;;;;;1.87;nan;98558.88;5074261;28;20255;-71
2023/04/05 06:39:28;;;;;;;8.17;6.30;;;;;;;1.88;nan;98551.81;5072690;28;20203;-72
2023/04/05 06:41:55;;;;;;;7.70;5.97;;;;;;;1.88;nan;98550.03;5073432;28;20211;-72
2023/04/05 06:44:21;;;;;;;8.30;6.37;;;;;;;1.86;nan;98553.78;5074422;28;20300;-72
2023/04/05 06:46:47;;;;;;;7.97;6.20;;;;;;;1.87;nan;98560.66;5073571;28;20211;-72
2023/04/05 06:49:14;;;;;;;10.07;6.60;;;;;;;1.94;nan;98549.41;5074230;28;20261;-73
2023/04/05 06:51:40;;;;;;;10.10;6.10;;;;;;;2.10;nan;98554.78;5074186;28;20232;-72
2023/04/05 06:54:06;;;;;;;7.73;5.20;;;;;;;2.06;nan;98552.59;5073236;28;20221;-72
2023/04/05 06:56:33;;;;;;;6.93;5.73;;;;;;;2.08;nan;98554.09;5073466;28;20205;-72
2023/04/05 06:59:01;;;;;;;6.13;5.20;;;;;;;2.09;nan;98550.50;5073167;28;20215;-72
2023/04/05 07:01:27;;;;;;;7.70;5.10;;;;;;;1.90;nan;98552.50;5073149;28;20721;-72
2023/04/05 07:03:53;;;;;;;6.17;4.90;;;;;;;2.17;nan;98560.22;5073172;28;20227;-72
2023/04/05 07:06:20;;;;;;;5.57;4.77;;;;;;;2.38;nan;98555.41;5073506;28;20208;-72
2023/04/05 07:08:46;;;;;;;8.17;5.73;;;;;;;2.64;nan;98556.22;5073459;28;20314;-73
2023/04/05 07:11:14;;;;;;;7.13;5.17;;;;;;;2.60;nan;98563.59;5073294;28;20231;-72
2023/04/05 07:13:40;;;;;;;7.80;5.60;;;;;;;2.76;nan;98566.28;5072986;28;20254;-72
2023/04/05 07:16:07;;;;;;;8.93;5.20;;;;;;;2.72;nan;98569.38;5073392;28;20204;-72
2023/04/05 07:18:33;;;;;;;6.67;5.27;;;;;;;2.51;nan;98564.53;5073462;28;20215;-72
2023/04/05 07:21:00;;;;;;;6.33;4.80;;;;;;;2.80;nan;98564.97;5072918;28;20206;-72
2023/04/05 07:23:27;;;;;;;6.73;5.20;;;;;;;2.57;nan;98563.09;5073157;28;20221;-72
2023/04/05 07:25:54;;;;;;;9.63;5.00;;;;;;;2.76;nan;98561.03;5073001;28;20333;-72
2023/04/05 07:28:21;;;;;;;6.93;4.90;;;;;;;2.84;nan;98561.06;5072724;28;20204;-72
2023/04/05 07:30:47;;;;;;;7.93;4.77;;;;;;;2.96;nan;98553.72;5073011;28;20564;-72
2023/04/05 07:33:13;;;;;;;8.13;5.60;;;;;;;3.13;nan;98555.41;5072834;28;20715;-73
2023/04/05 07:35:40;;;;;;;6.33;5.40;;;;;;;3.24;nan;98553.31;5072939;28;20209;-72
2023/04/05 07:38:06;;;;;;;7.47;4.90;;;;;;;3.39;nan;98556.13;5073116;28;20227;-72
2023/04/05 07:40:32;;;;;;;6.83;5.33;;;;;;;3.54;nan;98555.34;5073187;28;20204;-72
2023/04/05 07:42:59;;;;;;;5.70;4.83;;;;;;;3.34;nan;98553.97;5072893;28;20224;-73
2023/04/05 07:45:26;;;;;;;6.37;5.00;;;;;;;3.30;nan;98551.84;5072974;28;20201;-72
2023/04/05 07:47:52;;;;;;;6.83;5.20;;;;;;;3.32;nan;98555.13;5072887;28;20254;-73
2023/04/05 07:50:19;;;;;;;12.60;4.83;;;;;;;3.42;nan;98554.00;5072580;28;20234;-72
2023/04/05 07:52:45;;;;;;;6.77;5.40;;;;;;;3.56;nan;98565.66;5074357;28;20228;-72
2023/04/05 07:55:12;;;;;;;6.13;4.97;;;;;;;3.51;nan;98563.53;5077274;28;20206;-72
2023/04/05 07:57:38;;;;;;;7.70;5.03;;;;;;;3.59;nan;98566.19;5078034;28;20211;-72
2023/04/05 08:00:09;;;;;;;8.93;5.40;;;;;;;3.56;nan;98563.88;5076999;28;20205;-72
2023/04/05 08:02:35;;;;;;;7.07;5.43;;;;;;;3.58;nan;98566.34;5076960;28;20282;-72
2023/04/05 08:05:02;;;;;;;9.27;5.50;;;;;;;3.63;nan;98575.41;5077514;28;20200;-72
2023/04/05 08:07:29;;;;;;;5.90;5.00;;;;;;;3.83;nan;98565.34;5077057;28;20205;-73
2023/04/05 08:09:56;;;;;;;7.93;5.47;;;;;;;3.91;nan;98550.41;5077645;28;20208;-72
2023/04/05 08:12:23;;;;;;;5.73;4.83;;;;;;;4.03;nan;98561.44;5076777;28;20228;-72
2023/04/05 08:14:50;;;;;;;8.93;5.03;;;;;;;4.07;nan;98557.47;5076710;28;20675;-73
2023/04/05 08:17:16;;;;;;;8.57;5.20;;;;;;;3.98;nan;98556.66;5078088;28;20213;-73
2023/04/05 08:19:43;;;;;;;7.83;5.27;;;;;;;4.24;nan;98559.91;5078245;28;20204;-73
2023/04/05 08:22:09;;;;;;;7.67;5.60;;;;;;;4.55;nan;98552.94;5077668;28;20572;-72
2023/04/05 08:24:36;;;;;;;7.80;5.60;;;;;;;4.51;nan;98551.63;5077030;28;20200;-73
2023/04/05 08:27:02;;;;;;;8.93;5.30;;;;;;;4.81;nan;98548.25;5078171;28;20299;-73
2023/04/05 08:29:28;;;;;;;7.00;4.77;;;;;;;4.57;nan;98545.69;5076497;28;20299;-72
2023/04/05 08:31:57;;;;;;;7.17;5.17;;;;;;;4.62;nan;98559.16;5076213;28;20224;-72
2023/04/05 08:34:23;;;;;;;6.33;4.77;;;;;;;4.82;nan;98541.97;5076387;28;20277;-72
2023/04/05 08:36:50;;;;;;;4.83;4.37;;;;;;;5.14;nan;98551.53;5076712;28;20231;-74
2023/04/05 08:39:16;;;;;;;6.83;4.73;;;;;;;5.28;nan;98553.44;5078526;28;20207;-73
2023/04/05 08:41:54;;;;;;;5.97;4.47;;;;;;;4.92;nan;98554.94;5077336;28;20304;-73
2023/04/05 08:44:22;;;;;;;6.17;4.60;;;;;;;4.89;nan;98560.56;5078681;28;20185;-74
2023/04/05 08:46:50;;;;;;;5.67;4.30;;;;;;;4.60;nan;98553.25;5076450;28;20691;-73
2023/04/05 08:49:16;;;;;;;9.03;4.60;;;;;;;4.64;nan;98557.19;5076869;28;20570;-73
2023/04/05 08:51:43;;;;;;;4.83;4.27;;;;;;;4.79;nan;98559.94;5076748;28;20224;-73
2023/04/05 08:54:09;;;;;;;5.90;4.03;;;;;;;4.99;nan;98556.72;5075842;28;20231;-73
2023/04/05 08:56:36;;;;;;;6.17;4.30;;;;;;;5.05;nan;98552.56;5076554;28;20208;-73
2023/04/05 08:59:09;;;;;;;5.63;4.30;;;;;;;5.01;nan;98548.63;5076282;28;20209;-72
2023/04/05 09:04:23;;;;;;;4.83;4.23;;;;;;;5.55;nan;98558.22;5043450;22;20234;-73
2023/04/05 09:06:51;;;;;;;7.10;4.37;;;;;;;5.59;nan;98548.97;5036557;28;20195;-72
2023/04/05 09:09:20;;;;;;;4.90;3.90;;;;;;;5.92;nan;98555.69;5036629;28;20209;-73
2023/04/05 09:11:46;;;;;;;4.00;3.67;;;;;;;5.63;nan;98553.72;5036290;28;20229;-73
2023/04/05 09:14:13;;;;;;;5.57;4.17;;;;;;;5.49;nan;98543.94;5035493;28;20233;-73
2023/04/05 09:16:41;;;;;;;5.07;3.67;;;;;;;5.57;nan;98550.97;5035742;28;20302;-73
2023/04/05 09:19:08;;;;;;;4.63;3.50;;;;;;;6.07;nan;98545.97;5035694;28;20202;-73
2023/04/05 09:22:03;;;;;;;6.33;3.77;;;;;;;5.98;nan;98549.69;5035140;28;20683;-72
2023/04/05 09:24:31;;;;;;;4.00;3.60;;;;;;;6.02;nan;98553.63;5035370;28;20206;-73
2023/04/05 09:27:25;;;;;;;3.20;2.90;;;;;;;5.78;nan;98543.19;5035025;28;20681;-73
2023/04/05 09:29:51;;;;;;;4.20;3.17;;;;;;;6.21;nan;98542.53;5034941;28;20680;-73
2023/04/05 09:32:19;;;;;;;4.67;3.80;;;;;;;6.22;nan;98539.72;5035662;28;20240;-73
2023/04/05 09:34:46;;;;;;;4.20;3.37;;;;;;;6.43;nan;98539.03;5035351;28;20232;-73
2023/04/05 09:37:17;;;;;;;3.73;3.30;;;;;;;6.74;nan;98545.75;5035285;28;20206;-73
2023/04/05 09:39:44;;;;;;;5.17;3.30;;;;;;;6.89;nan;98551.03;5035752;28;20209;-73
2023/04/05 09:42:14;;;;;;;3.37;2.70;;;;;;;6.54;nan;98536.75;5035228;28;20343;-72
2023/04/05 09:44:54;;;;;;;4.37;3.10;;;;;;;7.04;nan;98543.91;5035016;28;20255;-73
2023/04/05 09:47:23;;;;;;;4.37;3.77;;;;;;;7.02;nan;98548.56;5035008;28;20217;-73
2023/04/05 09:49:50;;;;;;;6.03;3.57;;;;;;;7.01;nan;98542.47;5035325;28;20233;-73
2023/04/05 09:52:24;;;;;;;4.27;3.27;;;;;;;6.66;nan;98537.91;5035080;28;20245;-71
2023/04/05 09:54:55;;;;;;;5.03;3.23;;;;;;;6.39;nan;98533.28;5035974;28;20194;-72
2023/04/05 09:57:26;;;;;;;4.40;3.17;;;;;;;6.95;nan;98534.44;5036100;28;20217;-72
2023/04/05 09:59:53;;;;;;;3.93;3.00;;;;;;;6.52;nan;98527.38;5034833;28;20260;-71
2023/04/05 10:02:22;;;;;;;4.47;3.07;;;;;;;6.84;nan;98529.63;5034605;28;20233;-71
2023/04/05 10:04:48;;;;;;;6.00;3.77;;;;;;;7.12;nan;98525.31;5034453;28;20191;-71
2023/04/05 10:07:19;;;;;;;4.10;2.87;;;;;;;7.41;nan;98522.56;5034693;28;20213;-71
2023/04/05 10:09:47;;;;;;;4.37;3.60;;;;;;;7.49;nan;98525.09;5034796;28;20202;-72
2023/04/05 10:12:26;;;;;;;4.57;3.30;;;;;;;7.60;nan;98521.97;5034464;28;20313;-71
2023/04/05 10:14:53;;;;;;;3.90;3.03;;;;;;;7.39;nan;98516.66;5034898;28;20194;-72
2023/04/05 10:17:42;;;;;;;4.40;3.03;;;;;;;7.20;nan;98506.69;5034648;28;20206;-72
2023/04/05 10:20:16;;;;;;;4.97;3.30;;;;;;;7.79;nan;98516.03;5034626;28;20581;-72
2023/04/05 10:22:52;;;;;;;3.30;3.00;;;;;;;7.77;nan;98502.16;5035396;28;20225;-73
2023/04/05 10:25:25;;;;;;;4.00;3.10;;;;;;;7.90;nan;98499.63;5033942;28;20205;-72
2023/04/05 10:28:07;;;;;;;5.63;3.67;;;;;;;7.74;nan;98503.38;5034021;28;20703;-73
2023/04/05 10:30:46;;;;;;;4.83;3.97;;;;;;;7.79;nan;98502.81;5034116;28;20197;-71
2023/04/05 10:33:31;;;;;;;3.87;3.20;;;;;;;7.38;nan;98504.44;5017445;28;20221;-71
2023/04/05 10:36:22;;;;;;;5.43;3.47;;;;;;;7.75;nan;98488.31;5034049;28;20192;-73
2023/04/05 10:39:03;;;;;;;4.67;3.07;;;;;;;8.28;nan;98493.06;5034168;28;20281;-73
2023/04/05 10:41:35;;;;;;;4.33;3.20;;;;;;;7.87;nan;98503.47;5034473;28;20182;-73
2023/04/05 10:44:03;;;;;;;3.63;3.20;;;;;;;8.15;nan;98492.91;5033780;28;20222;-73
2023/04/05 10:46:31;;;;;;;3.20;2.90;;;;;;;7.69;nan;98491.72;5033703;28;20665;-73
2023/04/05 10:49:12;;;;;;;6.83;3.27;;;;;;;7.56;nan;98497.69;5033893;28;20232;-73
2023/04/05 10:51:39;;;;;;;3.97;3.57;;;;;;;7.64;nan;98489.66;5033823;28;20213;-71
2023/04/05 10:54:08;;;;;;;5.17;3.97;;;;;;;7.80;nan;98488.56;5033292;28;20709;-72
2023/04/05 10:56:37;;;;;;;4.63;4.07;;;;;;;8.17;nan;98485.59;5033207;28;20228;-71
2023/04/05 10:59:04;;;;;;;6.07;3.70;;;;;;;7.83;nan;98501.44;5033721;28;20557;-72
2023/04/05 11:01:31;;;;;;;4.43;4.03;;;;;;;7.83;nan;98493.47;5033563;28;20555;-71
2023/04/05 11:04:19;;;;;;;5.10;3.50;;;;;;;7.06;nan;98489.03;5033196;28;20238;-72
2023/04/05 11:06:47;;;;;;;4.57;3.50;;;;;;;7.16;nan;98498.31;5033429;28;20273;-72
2023/04/05 11:09:19;;;;;;;4.10;3.60;;;;;;;7.49;nan;98477.47;5033404;28;20206;-72
2023/04/05 11:11:50;;;;;;;3.73;3.27;;;;;;;7.92;nan;98482.53;5033194;28;20222;-71
2023/04/05 11:14:25;;;;;;;3.40;3.10;;;;;;;7.90;nan;98462.56;5033410;28;20201;-71
2023/04/05 11:16:55;;;;;;;6.33;3.67;;;;;;;8.10;nan;98464.34;5033273;28;20209;-70
2023/04/05 11:19:47;;;;;;;4.10;3.10;;;;;;;8.48;nan;98464.84;5032932;28;20214;-72
2023/04/05 11:22:25;;;;;;;4.27;3.10;;;;;;;8.71;nan;98463.53;5033220;28;20234;-72
2023/04/05 11:24:56;;;;;;;4.53;3.30;;;;;;;8.72;nan;98466.97;5033894;28;20280;-73
2023/04/05 11:27:36;;;;;;;4.33;3.50;;;;;;;8.24;nan;98465.31;5032375;28;20190;-72
2023/04/05 11:30:04;;;;;;;4.97;3.40;;;;;;;8.34;nan;98460.47;5032907;28;20555;-73
2023/04/05 11:32:41;;;;;;;3.87;3.40;;;;;;;8.19;nan;98455.25;5033014;28;20283;-73
2023/04/05 11:35:14;;;;;;;4.50;3.30;;;;;;;8.00;nan;98448.00;5032920;28;20209;-73
2023/04/05 11:38:21;;;;;;;5.23;3.60;;;;;;;8.31;nan;98463.50;5032743;28;20197;-71
2023/04/05 11:40:48;;;;;;;3.80;3.50;;;;;;;8.54;nan;98450.78;4994126;28;20580;-72
2023/04/05 11:43:15;;;;;;;3.43;3.00;;;;;;;8.42;nan;98457.69;5033183;28;20237;-72
2023/04/05 11:45:42;;;;;;;5.07;3.23;;;;;;;8.30;nan;98454.75;5033336;28;20206;-72
2023/04/05 11:48:13;;;;;;;5.57;3.70;;;;;;;8.18;nan;98453.63;5033032;28;20206;-72
2023/04/05 11:50:41;;;;;;;6.70;3.23;;;;;;;8.14;nan;98449.72;5033144;28;20237;-73
2023/04/05 11:53:15;;;;;;;3.83;3.10;;;;;;;8.05;nan;98445.59;5032704;28;20240;-73
2023/04/05 11:55:52;;;;;;;4.43;3.13;;;;;;;7.94;nan;98445.31;5032962;28;20197;-72
2023/04/05 11:58:21;;;;;;;3.60;3.13;;;;;;;7.94;nan;98442.66;5032788;28;20196;-73
2023/04/05 12:01:02;;;;;;;4.53;3.60;;;;;;;7.92;nan;98444.69;5032571;28;20205;-73
2023/04/05 12:03:29;;;;;;;3.60;3.07;;;;;;;8.31;nan;98440.50;5032388;28;20233;-73
2023/04/05 12:06:00;;;;;;;3.13;2.83;;;;;;;8.34;nan;98433.97;5032666;28;20665;-72
2023/04/05 12:08:40;;;;;;;3.80;2.97;;;;;;;8.47;nan;98434.84;5033470;28;20281;-73
2023/04/05 12:11:12;;;;;;;3.83;3.10;;;;;;;8.26;nan;98432.31;5032900;28;20212;-73